CheckWX is a tool to help pilots better visualize weather data.  It is not intended as a substitute for an official pre-flight weather briefing.

15:46:49 UTC

LJPZ METAR
Portoroz Airport
Portoroz, Slovenia
Current

17 mins ago

LJPZ 051530Z 04012KT 010V070 CAVOK 21/M02 Q1021
Observed
Apr-5 @ 15:30 UTC
Wind
  • 040° at 12 KTS
Visibility
10,000+ meters
Flight Rules
VFR
Cloud Levels
  • Clear skies
Temperature
21°C / 70°F
Dewpoint
-2°C / 28°F
Humidity
21%
Altimeter
30.15" Hg
Pressure
1020.92 hPa
Previous

47 mins ago

LJPZ 051500Z 04012KT 010V070 CAVOK 21/M02 Q1021
Observed
Apr-5 @ 15:00 UTC
Wind
  • 040° at 12 KTS
Visibility
10,000+ meters
Flight Rules
VFR
Cloud Levels
  • Clear skies
Temperature
21°C / 70°F
Dewpoint
-2°C / 28°F
Humidity
21%
Altimeter
30.15" Hg
Pressure
1020.92 hPa
Previous

1 hour ago

LJPZ 051430Z 04011KT 360V070 CAVOK 22/M01 Q1021
Observed
Apr-5 @ 14:30 UTC
Wind
  • 040° at 11 KTS
Visibility
10,000+ meters
Flight Rules
VFR
Cloud Levels
  • Clear skies
Temperature
22°C / 72°F
Dewpoint
-1°C / 30°F
Humidity
22%
Altimeter
30.15" Hg
Pressure
1020.92 hPa